sensor_id;sensor_type;location;lat;lon;timestamp;pressure;altitude;pressure_sealevel;temperature;humidity
64354;BME280;50681;53.334;-6.536;2023-04-07T00:00:54;101455.47;;;8.57;100.00
64354;BME280;50681;53.334;-6.536;2023-04-07T00:03:19;101460.84;;;8.57;100.00
64354;BME280;50681;53.334;-6.536;2023-04-07T00:05:46;101433.06;;;8.29;100.00
64354;BME280;50681;53.334;-6.536;2023-04-07T00:08:11;101450.31;;;8.33;100.00
64354;BME280;50681;53.334;-6.536;2023-04-07T00:10:36;101442.25;;;8.33;100.00
64354;BME280;50681;53.334;-6.536;2023-04-07T00:13:02;101438.78;;;8.38;100.00
64354;BME280;50681;53.334;-6.536;2023-04-07T00:15:27;101454.84;;;8.50;100.00
64354;BME280;50681;53.334;-6.536;2023-04-07T00:17:53;101451.00;;;8.46;100.00
64354;BME280;50681;53.334;-6.536;2023-04-07T00:20:18;101459.31;;;8.44;100.00
64354;BME280;50681;53.334;-6.536;2023-04-07T00:22:44;101439.50;;;8.28;100.00
64354;BME280;50681;53.334;-6.536;2023-04-07T00:25:09;101446.75;;;8.28;100.00
64354;BME280;50681;53.334;-6.536;2023-04-07T00:27:35;101426.38;;;8.09;100.00
64354;BME280;50681;53.334;-6.536;2023-04-07T00:30:01;101436.06;;;8.11;100.00
64354;BME280;50681;53.334;-6.536;2023-04-07T00:32:26;101404.41;;;7.95;100.00
64354;BME280;50681;53.334;-6.536;2023-04-07T00:34:52;101428.44;;;8.02;100.00
64354;BME280;50681;53.334;-6.536;2023-04-07T00:37:17;101444.06;;;8.05;100.00
64354;BME280;50681;53.334;-6.536;2023-04-07T00:39:43;101432.38;;;7.94;100.00
64354;BME280;50681;53.334;-6.536;2023-04-07T00:42:09;101428.81;;;7.89;100.00
64354;BME280;50681;53.334;-6.536;2023-04-07T00:44:35;101440.25;;;8.01;100.00
64354;BME280;50681;53.334;-6.536;2023-04-07T00:47:00;101432.56;;;7.88;100.00
64354;BME280;50681;53.334;-6.536;2023-04-07T00:49:26;101445.44;;;8.08;100.00
64354;BME280;50681;53.334;-6.536;2023-04-07T00:51:54;101444.88;;;8.06;100.00
64354;BME280;50681;53.334;-6.536;2023-04-07T00:54:22;101447.88;;;8.09;100.00
64354;BME280;50681;53.334;-6.536;2023-04-07T00:56:47;101449.44;;;8.05;100.00
64354;BME280;50681;53.334;-6.536;2023-04-07T00:59:13;101459.38;;;8.05;100.00
64354;BME280;50681;53.334;-6.536;2023-04-07T01:01:43;101428.31;;;7.92;100.00
64354;BME280;50681;53.334;-6.536;2023-04-07T01:04:31;101422.16;;;7.97;100.00
64354;BME280;50681;53.334;-6.536;2023-04-07T01:07:23;101448.06;;;8.03;100.00
64354;BME280;50681;53.334;-6.536;2023-04-07T01:09:57;101443.66;;;7.74;100.00
64354;BME280;50681;53.334;-6.536;2023-04-07T01:12:40;101440.97;;;7.74;100.00
64354;BME280;50681;53.334;-6.536;2023-04-07T01:15:10;101419.81;;;7.61;100.00
64354;BME280;50681;53.334;-6.536;2023-04-07T01:17:38;101432.13;;;7.74;100.00
64354;BME280;50681;53.334;-6.536;2023-04-07T01:20:11;101436.78;;;7.61;100.00
64354;BME280;50681;53.334;-6.536;2023-04-07T01:22:57;101433.09;;;7.68;100.00
64354;BME280;50681;53.334;-6.536;2023-04-07T01:30:53;101428.00;;;7.49;100.00
64354;BME280;50681;53.334;-6.536;2023-04-07T01:33:21;101408.63;;;7.30;100.00
64354;BME280;50681;53.334;-6.536;2023-04-07T01:35:48;101427.66;;;7.45;100.00
64354;BME280;50681;53.334;-6.536;2023-04-07T01:38:16;101423.59;;;7.26;100.00
64354;BME280;50681;53.334;-6.536;2023-04-07T01:40:42;101421.50;;;7.28;100.00
64354;BME280;50681;53.334;-6.536;2023-04-07T01:43:08;101434.31;;;7.60;100.00
64354;BME280;50681;53.334;-6.536;2023-04-07T01:45:36;101434.25;;;7.55;100.00
64354;BME280;50681;53.334;-6.536;2023-04-07T01:48:06;101437.78;;;7.38;100.00
64354;BME280;50681;53.334;-6.536;2023-04-07T01:50:32;101411.56;;;7.11;100.00
64354;BME280;50681;53.334;-6.536;2023-04-07T01:52:59;101413.53;;;6.99;100.00
64354;BME280;50681;53.334;-6.536;2023-04-07T01:55:25;101421.34;;;7.00;100.00
64354;BME280;50681;53.334;-6.536;2023-04-07T01:57:52;101418.56;;;7.12;100.00
64354;BME280;50681;53.334;-6.536;2023-04-07T02:00:18;101409.13;;;6.75;100.00
64354;BME280;50681;53.334;-6.536;2023-04-07T02:02:45;101409.91;;;6.76;100.00
64354;BME280;50681;53.334;-6.536;2023-04-07T02:05:17;101417.25;;;6.98;100.00
64354;BME280;50681;53.334;-6.536;2023-04-07T02:07:59;101423.44;;;7.15;100.00
64354;BME280;50681;53.334;-6.536;2023-04-07T02:10:28;101422.00;;;7.08;100.00
64354;BME280;50681;53.334;-6.536;2023-04-07T02:12:57;101414.66;;;7.03;100.00
64354;BME280;50681;53.334;-6.536;2023-04-07T02:15:22;101436.06;;;7.15;100.00
64354;BME280;50681;53.334;-6.536;2023-04-07T02:17:53;101422.22;;;7.06;100.00
64354;BME280;50681;53.334;-6.536;2023-04-07T02:20:21;101407.19;;;6.88;100.00
64354;BME280;50681;53.334;-6.536;2023-04-07T02:22:47;101416.44;;;6.80;100.00
64354;BME280;50681;53.334;-6.536;2023-04-07T02:25:23;101419.47;;;7.01;100.00
64354;BME280;50681;53.334;-6.536;2023-04-07T02:27:49;101390.88;;;6.60;100.00
64354;BME280;50681;53.334;-6.536;2023-04-07T02:30:14;101424.25;;;6.82;100.00
64354;BME280;50681;53.334;-6.536;2023-04-07T02:32:40;101385.31;;;6.50;100.00
64354;BME280;50681;53.334;-6.536;2023-04-07T02:35:05;101427.34;;;6.73;100.00
64354;BME280;50681;53.334;-6.536;2023-04-07T02:37:31;101419.50;;;6.72;100.00
64354;BME280;50681;53.334;-6.536;2023-04-07T02:39:56;101413.63;;;6.58;100.00
64354;BME280;50681;53.334;-6.536;2023-04-07T02:42:22;101412.31;;;6.60;100.00
64354;BME280;50681;53.334;-6.536;2023-04-07T02:44:47;101398.03;;;6.55;100.00
64354;BME280;50681;53.334;-6.536;2023-04-07T02:47:13;101424.47;;;6.63;100.00
64354;BME280;50681;53.334;-6.536;2023-04-07T02:49:38;101413.72;;;6.63;100.00
64354;BME280;50681;53.334;-6.536;2023-04-07T02:52:04;101423.53;;;6.57;100.00
64354;BME280;50681;53.334;-6.536;2023-04-07T02:54:29;101427.84;;;6.58;100.00
64354;BME280;50681;53.334;-6.536;2023-04-07T02:56:54;101395.16;;;6.44;100.00
64354;BME280;50681;53.334;-6.536;2023-04-07T02:59:21;101397.63;;;6.34;100.00
64354;BME280;50681;53.334;-6.536;2023-04-07T03:01:47;101401.69;;;6.37;100.00
64354;BME280;50681;53.334;-6.536;2023-04-07T03:04:12;101396.63;;;6.23;100.00
64354;BME280;50681;53.334;-6.536;2023-04-07T03:06:37;101403.81;;;6.35;100.00
64354;BME280;50681;53.334;-6.536;2023-04-07T03:09:05;101408.31;;;6.46;100.00
64354;BME280;50681;53.334;-6.536;2023-04-07T03:11:31;101385.31;;;6.21;100.00
64354;BME280;50681;53.334;-6.536;2023-04-07T03:13:56;101372.53;;;5.99;100.00
64354;BME280;50681;53.334;-6.536;2023-04-07T03:16:22;101392.09;;;6.12;100.00
64354;BME280;50681;53.334;-6.536;2023-04-07T03:18:47;101381.97;;;6.14;100.00
64354;BME280;50681;53.334;-6.536;2023-04-07T03:21:13;101421.44;;;6.30;100.00
64354;BME280;50681;53.334;-6.536;2023-04-07T03:23:38;101382.91;;;6.08;100.00
64354;BME280;50681;53.334;-6.536;2023-04-07T03:26:03;101393.63;;;6.08;100.00
64354;BME280;50681;53.334;-6.536;2023-04-07T03:28:29;101391.88;;;6.13;100.00
64354;BME280;50681;53.334;-6.536;2023-04-07T03:30:54;101433.78;;;6.31;100.00
64354;BME280;50681;53.334;-6.536;2023-04-07T03:33:20;101391.53;;;6.10;100.00
64354;BME280;50681;53.334;-6.536;2023-04-07T03:35:46;101402.34;;;6.15;100.00
64354;BME280;50681;53.334;-6.536;2023-04-07T03:38:11;101411.22;;;6.15;100.00
64354;BME280;50681;53.334;-6.536;2023-04-07T03:40:36;101396.34;;;5.96;100.00
64354;BME280;50681;53.334;-6.536;2023-04-07T03:43:02;101428.28;;;6.09;100.00
64354;BME280;50681;53.334;-6.536;2023-04-07T03:45:27;101423.13;;;6.08;100.00
64354;BME280;50681;53.334;-6.536;2023-04-07T03:47:53;101393.66;;;5.84;100.00
64354;BME280;50681;53.334;-6.536;2023-04-07T03:50:18;101402.38;;;5.91;100.00
64354;BME280;50681;53.334;-6.536;2023-04-07T03:52:44;101421.03;;;5.98;100.00
64354;BME280;50681;53.334;-6.536;2023-04-07T03:55:11;101389.34;;;5.83;100.00
64354;BME280;50681;53.334;-6.536;2023-04-07T03:57:36;101419.63;;;5.95;100.00
64354;BME280;50681;53.334;-6.536;2023-04-07T04:00:04;101411.72;;;5.88;100.00
64354;BME280;50681;53.334;-6.536;2023-04-07T04:02:29;101402.66;;;5.78;100.00
64354;BME280;50681;53.334;-6.536;2023-04-07T04:04:55;101404.75;;;5.87;100.00
64354;BME280;50681;53.334;-6.536;2023-04-07T04:07:20;101414.63;;;5.87;100.00
64354;BME280;50681;53.334;-6.536;2023-04-07T04:09:46;101399.03;;;5.84;100.00
64354;BME280;50681;53.334;-6.536;2023-04-07T04:12:11;101405.22;;;5.84;100.00
64354;BME280;50681;53.334;-6.536;2023-04-07T04:14:37;101379.63;;;5.65;100.00
64354;BME280;50681;53.334;-6.536;2023-04-07T04:17:02;101389.13;;;5.72;100.00
64354;BME280;50681;53.334;-6.536;2023-04-07T04:19:27;101398.91;;;5.79;100.00
64354;BME280;50681;53.334;-6.536;2023-04-07T04:21:53;101419.78;;;5.77;100.00
64354;BME280;50681;53.334;-6.536;2023-04-07T04:24:18;101369.84;;;5.47;100.00
64354;BME280;50681;53.334;-6.536;2023-04-07T04:26:44;101409.06;;;5.77;100.00
64354;BME280;50681;53.334;-6.536;2023-04-07T04:29:09;101413.84;;;5.74;100.00
64354;BME280;50681;53.334;-6.536;2023-04-07T04:31:34;101377.75;;;5.53;100.00
64354;BME280;50681;53.334;-6.536;2023-04-07T04:34:00;101418.16;;;5.76;100.00
64354;BME280;50681;53.334;-6.536;2023-04-07T04:36:26;101389.75;;;5.51;100.00
64354;BME280;50681;53.334;-6.536;2023-04-07T04:38:51;101393.84;;;5.53;100.00
64354;BME280;50681;53.334;-6.536;2023-04-07T04:41:17;101392.88;;;5.48;100.00
64354;BME280;50681;53.334;-6.536;2023-04-07T04:43:44;101405.13;;;5.43;100.00
64354;BME280;50681;53.334;-6.536;2023-04-07T04:46:10;101418.03;;;5.47;100.00
64354;BME280;50681;53.334;-6.536;2023-04-07T04:48:35;101403.25;;;5.20;100.00
64354;BME280;50681;53.334;-6.536;2023-04-07T04:51:00;101410.63;;;5.25;100.00
64354;BME280;50681;53.334;-6.536;2023-04-07T04:53:26;101404.06;;;5.09;100.00
64354;BME280;50681;53.334;-6.536;2023-04-07T04:55:51;101403.25;;;5.08;100.00
64354;BME280;50681;53.334;-6.536;2023-04-07T04:58:19;101425.28;;;5.22;100.00
64354;BME280;50681;53.334;-6.536;2023-04-07T05:00:44;101406.41;;;5.05;100.00
64354;BME280;50681;53.334;-6.536;2023-04-07T05:03:10;101399.63;;;4.91;100.00
64354;BME280;50681;53.334;-6.536;2023-04-07T05:05:36;101438.41;;;5.12;100.00
64354;BME280;50681;53.334;-6.536;2023-04-07T05:08:01;101431.75;;;5.03;100.00
64354;BME280;50681;53.334;-6.536;2023-04-07T05:10:26;101417.66;;;4.83;100.00
64354;BME280;50681;53.334;-6.536;2023-04-07T05:12:52;101407.66;;;4.91;100.00
64354;BME280;50681;53.334;-6.536;2023-04-07T05:15:17;101403.94;;;4.92;100.00
64354;BME280;50681;53.334;-6.536;2023-04-07T05:17:43;101417.00;;;5.00;100.00
64354;BME280;50681;53.334;-6.536;2023-04-07T05:20:09;101429.91;;;5.15;100.00
64354;BME280;50681;53.334;-6.536;2023-04-07T05:22:35;101420.38;;;5.07;100.00
64354;BME280;50681;53.334;-6.536;2023-04-07T05:25:01;101424.44;;;5.10;100.00
64354;BME280;50681;53.334;-6.536;2023-04-07T05:27:26;101412.22;;;5.02;100.00
64354;BME280;50681;53.334;-6.536;2023-04-07T05:29:52;101411.28;;;5.08;100.00
64354;BME280;50681;53.334;-6.536;2023-04-07T05:32:18;101411.63;;;5.00;100.00
64354;BME280;50681;53.334;-6.536;2023-04-07T05:34:43;101414.31;;;5.00;100.00
64354;BME280;50681;53.334;-6.536;2023-04-07T05:37:09;101413.59;;;4.93;100.00
64354;BME280;50681;53.334;-6.536;2023-04-07T05:39:35;101437.81;;;5.10;100.00
64354;BME280;50681;53.334;-6.536;2023-04-07T05:42:00;101400.44;;;4.91;100.00
64354;BME280;50681;53.334;-6.536;2023-04-07T05:44:27;101423.72;;;5.03;100.00
64354;BME280;50681;53.334;-6.536;2023-04-07T05:46:52;101406.50;;;4.87;100.00
64354;BME280;50681;53.334;-6.536;2023-04-07T05:49:18;101421.50;;;4.99;100.00
64354;BME280;50681;53.334;-6.536;2023-04-07T05:51:43;101414.19;;;4.95;100.00
64354;BME280;50681;53.334;-6.536;2023-04-07T05:54:09;101403.09;;;4.91;100.00
64354;BME280;50681;53.334;-6.536;2023-04-07T05:56:34;101434.94;;;5.11;100.00
64354;BME280;50681;53.334;-6.536;2023-04-07T05:59:00;101437.72;;;5.17;100.00
64354;BME280;50681;53.334;-6.536;2023-04-07T06:01:26;101442.03;;;5.18;100.00
64354;BME280;50681;53.334;-6.536;2023-04-07T06:03:51;101415.84;;;5.20;100.00
64354;BME280;50681;53.334;-6.536;2023-04-07T06:06:17;101439.03;;;5.38;100.00
64354;BME280;50681;53.334;-6.536;2023-04-07T06:08:42;101421.44;;;5.30;100.00
64354;BME280;50681;53.334;-6.536;2023-04-07T06:11:08;101418.53;;;5.32;100.00
64354;BME280;50681;53.334;-6.536;2023-04-07T06:13:33;101433.31;;;5.46;100.00
64354;BME280;50681;53.334;-6.536;2023-04-07T06:15:59;101433.06;;;5.48;100.00
64354;BME280;50681;53.334;-6.536;2023-04-07T06:18:24;101437.28;;;5.55;100.00
64354;BME280;50681;53.334;-6.536;2023-04-07T06:20:50;101425.28;;;5.46;100.00
64354;BME280;50681;53.334;-6.536;2023-04-07T06:23:15;101425.72;;;5.55;100.00
64354;BME280;50681;53.334;-6.536;2023-04-07T06:25:41;101410.00;;;5.47;100.00
64354;BME280;50681;53.334;-6.536;2023-04-07T06:28:06;101416.53;;;5.51;100.00
64354;BME280;50681;53.334;-6.536;2023-04-07T06:30:33;101431.44;;;5.70;100.00
64354;BME280;50681;53.334;-6.536;2023-04-07T06:32:58;101430.53;;;5.65;100.00
64354;BME280;50681;53.334;-6.536;2023-04-07T06:35:24;101429.22;;;5.67;100.00
64354;BME280;50681;53.334;-6.536;2023-04-07T06:37:51;101443.44;;;5.80;100.00
64354;BME280;50681;53.334;-6.536;2023-04-07T06:40:17;101428.16;;;5.68;100.00
64354;BME280;50681;53.334;-6.536;2023-04-07T06:42:42;101421.66;;;5.76;100.00
64354;BME280;50681;53.334;-6.536;2023-04-07T06:45:08;101437.03;;;5.81;100.00
64354;BME280;50681;53.334;-6.536;2023-04-07T06:47:34;101425.97;;;5.77;100.00
64354;BME280;50681;53.334;-6.536;2023-04-07T06:49:59;101440.50;;;5.93;100.00
64354;BME280;50681;53.334;-6.536;2023-04-07T06:52:25;101440.84;;;5.85;100.00
64354;BME280;50681;53.334;-6.536;2023-04-07T06:54:50;101421.66;;;5.76;100.00
64354;BME280;50681;53.334;-6.536;2023-04-07T06:57:16;101456.47;;;6.00;100.00
64354;BME280;50681;53.334;-6.536;2023-04-07T06:59:41;101453.56;;;6.01;100.00
64354;BME280;50681;53.334;-6.536;2023-04-07T07:02:07;101441.91;;;6.08;100.00
64354;BME280;50681;53.334;-6.536;2023-04-07T07:04:35;101445.47;;;6.25;100.00
64354;BME280;50681;53.334;-6.536;2023-04-07T07:07:00;101435.00;;;6.12;100.00
64354;BME280;50681;53.334;-6.536;2023-04-07T07:09:26;101445.38;;;6.20;100.00
64354;BME280;50681;53.334;-6.536;2023-04-07T07:11:52;101457.66;;;6.45;100.00
64354;BME280;50681;53.334;-6.536;2023-04-07T07:14:17;101438.66;;;6.46;100.00
64354;BME280;50681;53.334;-6.536;2023-04-07T07:16:43;101443.56;;;6.67;100.00
64354;BME280;50681;53.334;-6.536;2023-04-07T07:19:08;101447.19;;;6.72;100.00
64354;BME280;50681;53.334;-6.536;2023-04-07T07:21:34;101448.72;;;6.85;100.00
64354;BME280;50681;53.334;-6.536;2023-04-07T07:23:59;101447.72;;;7.03;100.00
64354;BME280;50681;53.334;-6.536;2023-04-07T07:26:25;101457.38;;;7.21;100.00
64354;BME280;50681;53.334;-6.536;2023-04-07T07:28:51;101441.28;;;7.21;100.00
64354;BME280;50681;53.334;-6.536;2023-04-07T07:31:17;101461.69;;;7.57;100.00
64354;BME280;50681;53.334;-6.536;2023-04-07T07:33:42;101438.41;;;7.45;100.00
64354;BME280;50681;53.334;-6.536;2023-04-07T07:36:10;101454.25;;;7.81;100.00
64354;BME280;50681;53.334;-6.536;2023-04-07T07:38:35;101434.94;;;7.84;100.00
64354;BME280;50681;53.334;-6.536;2023-04-07T07:41:01;101454.75;;;8.00;100.00
64354;BME280;50681;53.334;-6.536;2023-04-07T07:43:27;101435.16;;;8.05;100.00
64354;BME280;50681;53.334;-6.536;2023-04-07T07:45:52;101423.75;;;8.15;100.00
64354;BME280;50681;53.334;-6.536;2023-04-07T07:48:20;101443.38;;;8.37;100.00
64354;BME280;50681;53.334;-6.536;2023-04-07T07:50:45;101453.69;;;8.46;100.00
64354;BME280;50681;53.334;-6.536;2023-04-07T07:53:12;101436.47;;;8.47;100.00
64354;BME280;50681;53.334;-6.536;2023-04-07T07:55:37;101448.69;;;8.82;100.00
64354;BME280;50681;53.334;-6.536;2023-04-07T07:58:02;101426.34;;;8.81;100.00
64354;BME280;50681;53.334;-6.536;2023-04-07T08:00:28;101448.28;;;8.95;100.00
64354;BME280;50681;53.334;-6.536;2023-04-07T08:02:54;101446.75;;;9.05;100.00
64354;BME280;50681;53.334;-6.536;2023-04-07T08:05:20;101433.00;;;9.06;100.00
64354;BME280;50681;53.334;-6.536;2023-04-07T08:07:47;101426.38;;;9.19;100.00
64354;BME280;50681;53.334;-6.536;2023-04-07T08:10:13;101410.81;;;9.26;100.00
64354;BME280;50681;53.334;-6.536;2023-04-07T08:12:39;101429.22;;;9.40;100.00
64354;BME280;50681;53.334;-6.536;2023-04-07T08:15:05;101433.88;;;9.50;100.00
64354;BME280;50681;53.334;-6.536;2023-04-07T08:17:34;101420.75;;;9.64;100.00
64354;BME280;50681;53.334;-6.536;2023-04-07T08:19:59;101444.63;;;9.93;100.00
64354;BME280;50681;53.334;-6.536;2023-04-07T08:22:25;101445.00;;;10.17;100.00
64354;BME280;50681;53.334;-6.536;2023-04-07T08:24:50;101435.59;;;10.30;100.00
64354;BME280;50681;53.334;-6.536;2023-04-07T08:27:16;101436.69;;;10.34;100.00
64354;BME280;50681;53.334;-6.536;2023-04-07T08:29:41;101449.47;;;10.65;100.00
64354;BME280;50681;53.334;-6.536;2023-04-07T08:32:07;101434.59;;;10.62;100.00
64354;BME280;50681;53.334;-6.536;2023-04-07T08:34:32;101431.13;;;10.77;100.00
64354;BME280;50681;53.334;-6.536;2023-04-07T08:36:58;101415.16;;;10.65;100.00
64354;BME280;50681;53.334;-6.536;2023-04-07T08:39:33;101424.38;;;11.00;100.00
64354;BME280;50681;53.334;-6.536;2023-04-07T08:41:59;101431.94;;;11.24;100.00
64354;BME280;50681;53.334;-6.536;2023-04-07T08:44:26;101420.84;;;11.41;100.00
64354;BME280;50681;53.334;-6.536;2023-04-07T08:46:55;101439.94;;;11.76;100.00
64354;BME280;50681;53.334;-6.536;2023-04-07T08:49:23;101415.63;;;11.66;100.00
64354;BME280;50681;53.334;-6.536;2023-04-07T08:51:52;101432.63;;;11.87;100.00
64354;BME280;50681;53.334;-6.536;2023-04-07T08:54:18;101429.38;;;11.90;100.00
64354;BME280;50681;53.334;-6.536;2023-04-07T08:56:46;101416.09;;;11.94;100.00
64354;BME280;50681;53.334;-6.536;2023-04-07T08:59:13;101422.44;;;12.29;100.00
64354;BME280;50681;53.334;-6.536;2023-04-07T09:01:39;101444.03;;;12.44;100.00
64354;BME280;50681;53.334;-6.536;2023-04-07T09:04:06;101455.03;;;12.63;100.00
64354;BME280;50681;53.334;-6.536;2023-04-07T09:06:32;101452.59;;;12.62;100.00
64354;BME280;50681;53.334;-6.536;2023-04-07T09:09:01;101415.31;;;12.43;100.00
64354;BME280;50681;53.334;-6.536;2023-04-07T09:11:28;101446.00;;;12.73;100.00
64354;BME280;50681;53.334;-6.536;2023-04-07T09:13:55;101438.13;;;13.12;100.00
64354;BME280;50681;53.334;-6.536;2023-04-07T09:16:21;101452.78;;;13.40;100.00
64354;BME280;50681;53.334;-6.536;2023-04-07T09:18:48;101434.75;;;13.25;100.00
64354;BME280;50681;53.334;-6.536;2023-04-07T09:21:14;101451.09;;;13.49;100.00
64354;BME280;50681;53.334;-6.536;2023-04-07T09:23:40;101443.91;;;13.34;100.00
64354;BME280;50681;53.334;-6.536;2023-04-07T09:26:23;101440.63;;;13.37;100.00
64354;BME280;50681;53.334;-6.536;2023-04-07T09:28:59;101409.44;;;13.05;100.00
64354;BME280;50681;53.334;-6.536;2023-04-07T09:31:49;101439.97;;;13.51;100.00
64354;BME280;50681;53.334;-6.536;2023-04-07T09:34:36;101437.59;;;13.39;100.00
64354;BME280;50681;53.334;-6.536;2023-04-07T09:37:02;101442.75;;;13.46;100.00
64354;BME280;50681;53.334;-6.536;2023-04-07T09:39:28;101428.34;;;13.45;100.00
64354;BME280;50681;53.334;-6.536;2023-04-07T09:41:54;101441.22;;;13.59;100.00
64354;BME280;50681;53.334;-6.536;2023-04-07T09:44:21;101412.53;;;13.52;100.00
64354;BME280;50681;53.334;-6.536;2023-04-07T09:49:15;101436.81;;;13.92;100.00
64354;BME280;50681;53.334;-6.536;2023-04-07T09:52:01;101436.91;;;14.06;100.00
64354;BME280;50681;53.334;-6.536;2023-04-07T09:54:35;101435.59;;;14.23;100.00
64354;BME280;50681;53.334;-6.536;2023-04-07T09:57:03;101417.16;;;14.01;100.00
64354;BME280;50681;53.334;-6.536;2023-04-07T09:59:30;101416.97;;;14.35;100.00
64354;BME280;50681;53.334;-6.536;2023-04-07T10:01:56;101430.16;;;14.61;100.00
64354;BME280;50681;53.334;-6.536;2023-04-07T10:04:23;101412.63;;;14.53;100.00
64354;BME280;50681;53.334;-6.536;2023-04-07T10:06:49;101420.34;;;14.46;100.00
64354;BME280;50681;53.334;-6.536;2023-04-07T10:09:15;101423.81;;;14.71;100.00
64354;BME280;50681;53.334;-6.536;2023-04-07T10:11:43;101428.28;;;14.81;100.00
64354;BME280;50681;53.334;-6.536;2023-04-07T10:14:09;101396.03;;;14.74;100.00
64354;BME280;50681;53.334;-6.536;2023-04-07T10:16:38;101431.50;;;15.02;100.00
64354;BME280;50681;53.334;-6.536;2023-04-07T10:19:05;101424.34;;;15.06;100.00
64354;BME280;50681;53.334;-6.536;2023-04-07T10:21:34;101431.81;;;15.14;100.00
64354;BME280;50681;53.334;-6.536;2023-04-07T10:26:46;101406.94;;;15.21;100.00
64354;BME280;50681;53.334;-6.536;2023-04-07T10:29:16;101426.19;;;15.25;100.00
64354;BME280;50681;53.334;-6.536;2023-04-07T10:31:44;101428.41;;;15.23;97.64
64354;BME280;50681;53.334;-6.536;2023-04-07T10:34:10;101425.22;;;15.49;98.72
64354;BME280;50681;53.334;-6.536;2023-04-07T10:37:09;101426.25;;;15.53;98.39
64354;BME280;50681;53.334;-6.536;2023-04-07T10:39:35;101420.19;;;15.56;95.08
64354;BME280;50681;53.334;-6.536;2023-04-07T10:42:03;101426.66;;;15.60;99.11
64354;BME280;50681;53.334;-6.536;2023-04-07T10:44:49;101421.63;;;15.67;96.52
64354;BME280;50681;53.334;-6.536;2023-04-07T10:47:14;101409.72;;;15.63;100.00
64354;BME280;50681;53.334;-6.536;2023-04-07T10:52:45;101419.06;;;15.71;91.76
64354;BME280;50681;53.334;-6.536;2023-04-07T10:58:28;101408.88;;;16.05;91.45
64354;BME280;50681;53.334;-6.536;2023-04-07T11:03:37;101396.59;;;15.93;95.05
64354;BME280;50681;53.334;-6.536;2023-04-07T11:06:08;101395.69;;;15.98;99.25
64354;BME280;50681;53.334;-6.536;2023-04-07T11:08:41;101410.16;;;16.21;87.90
64354;BME280;50681;53.334;-6.536;2023-04-07T11:11:08;101401.97;;;16.21;94.33
64354;BME280;50681;53.334;-6.536;2023-04-07T11:13:46;101392.06;;;16.39;92.27
64354;BME280;50681;53.334;-6.536;2023-04-07T11:16:13;101403.50;;;16.50;90.57
64354;BME280;50681;53.334;-6.536;2023-04-07T11:18:40;101405.44;;;16.50;89.61
64354;BME280;50681;53.334;-6.536;2023-04-07T11:21:06;101384.56;;;16.45;87.92
64354;BME280;50681;53.334;-6.536;2023-04-07T11:23:43;101371.53;;;16.42;87.53
64354;BME280;50681;53.334;-6.536;2023-04-07T11:26:11;101380.59;;;16.51;85.26
64354;BME280;50681;53.334;-6.536;2023-04-07T11:29:03;101408.13;;;17.09;79.44
64354;BME280;50681;53.334;-6.536;2023-04-07T11:31:29;101406.22;;;17.10;79.77
64354;BME280;50681;53.334;-6.536;2023-04-07T11:34:02;101405.03;;;17.02;75.69
64354;BME280;50681;53.334;-6.536;2023-04-07T11:36:33;101400.69;;;17.01;73.25
64354;BME280;50681;53.334;-6.536;2023-04-07T11:39:00;101397.53;;;17.08;75.80
64354;BME280;50681;53.334;-6.536;2023-04-07T11:41:27;101411.00;;;17.44;74.02
64354;BME280;50681;53.334;-6.536;2023-04-07T11:44:08;101405.47;;;17.67;75.10
64354;BME280;50681;53.334;-6.536;2023-04-07T11:46:34;101405.91;;;17.52;73.94
64354;BME280;50681;53.334;-6.536;2023-04-07T11:49:16;101404.63;;;17.58;73.74
64354;BME280;50681;53.334;-6.536;2023-04-07T11:51:43;101416.88;;;17.60;74.02
64354;BME280;50681;53.334;-6.536;2023-04-07T11:54:09;101390.22;;;17.26;73.29
64354;BME280;50681;53.334;-6.536;2023-04-07T11:56:45;101410.63;;;17.28;72.46
64354;BME280;50681;53.334;-6.536;2023-04-07T11:59:21;101390.97;;;17.17;70.53
64354;BME280;50681;53.334;-6.536;2023-04-07T12:01:48;101388.78;;;16.97;68.56
64354;BME280;50681;53.334;-6.536;2023-04-07T12:04:14;101394.59;;;17.36;69.71
64354;BME280;50681;53.334;-6.536;2023-04-07T12:06:44;101403.56;;;17.27;71.25
64354;BME280;50681;53.334;-6.536;2023-04-07T12:09:30;101412.41;;;17.33;68.01
64354;BME280;50681;53.334;-6.536;2023-04-07T12:11:57;101410.78;;;17.63;71.47
64354;BME280;50681;53.334;-6.536;2023-04-07T12:14:23;101398.06;;;17.59;68.18
64354;BME280;50681;53.334;-6.536;2023-04-07T12:16:49;101397.97;;;17.82;69.84
64354;BME280;50681;53.334;-6.536;2023-04-07T12:19:15;101401.31;;;17.78;69.58
64354;BME280;50681;53.334;-6.536;2023-04-07T12:21:40;101392.50;;;17.73;69.50
64354;BME280;50681;53.334;-6.536;2023-04-07T12:24:06;101407.47;;;17.93;68.74
64354;BME280;50681;53.334;-6.536;2023-04-07T12:26:31;101402.44;;;17.69;68.64
64354;BME280;50681;53.334;-6.536;2023-04-07T12:28:57;101396.44;;;17.58;69.17
64354;BME280;50681;53.334;-6.536;2023-04-07T12:31:30;101397.47;;;17.80;68.48
64354;BME280;50681;53.334;-6.536;2023-04-07T12:33:59;101385.63;;;17.84;67.43
64354;BME280;50681;53.334;-6.536;2023-04-07T12:36:25;101395.63;;;18.06;67.26
64354;BME280;50681;53.334;-6.536;2023-04-07T12:38:52;101392.59;;;18.26;66.91
64354;BME280;50681;53.334;-6.536;2023-04-07T12:41:18;101379.56;;;18.31;63.70
64354;BME280;50681;53.334;-6.536;2023-04-07T12:43:44;101404.50;;;18.47;62.41
64354;BME280;50681;53.334;-6.536;2023-04-07T12:46:10;101396.78;;;18.23;64.27
64354;BME280;50681;53.334;-6.536;2023-04-07T12:48:35;101396.94;;;18.35;65.06
64354;BME280;50681;53.334;-6.536;2023-04-07T12:51:01;101399.38;;;18.37;65.23
64354;BME280;50681;53.334;-6.536;2023-04-07T12:53:26;101377.00;;;18.26;65.95
64354;BME280;50681;53.334;-6.536;2023-04-07T12:55:53;101381.81;;;18.47;65.42
64354;BME280;50681;53.334;-6.536;2023-04-07T12:58:18;101391.59;;;18.57;66.54